createdAt,value
2016-09-01T00:00:05.479Z,18.49
2016-09-01T00:01:17.771Z,18.44
2016-09-01T00:02:29.338Z,18.45
2016-09-01T00:03:40.203Z,18.5
2016-09-01T00:04:51.769Z,18.41
2016-09-01T00:06:04.048Z,18.41
2016-09-01T00:07:14.194Z,18.39
2016-09-01T00:08:26.448Z,18.49
2016-09-01T00:09:38.707Z,18.49
2016-09-01T00:10:50.287Z,18.44
2016-09-01T00:12:01.845Z,18.45
2016-09-01T00:13:14.112Z,18.5
2016-09-01T00:14:26.373Z,18.49
2016-09-01T00:15:37.921Z,18.39
2016-09-01T00:16:50.176Z,18.32
2016-09-01T00:18:01.029Z,18.38
2016-09-01T00:19:12.590Z,18.26
2016-09-01T00:20:24.850Z,18.27
2016-09-01T00:21:35.693Z,18.26
2016-09-01T00:22:47.962Z,18.24
2016-09-01T00:24:00.222Z,18.24
2016-09-01T00:25:12.515Z,18.29
2016-09-01T00:26:24.775Z,18.2
2016-09-01T00:27:37.032Z,18.2
2016-09-01T00:28:48.595Z,18.24
2016-09-01T00:30:00.867Z,18.16
2016-09-01T00:31:13.881Z,18.2
2016-09-01T00:32:26.150Z,18.13
2016-09-01T00:33:36.293Z,18.2
2016-09-01T00:34:48.568Z,18.23
2016-09-01T00:35:59.441Z,18.23
2016-09-01T00:37:11.004Z,18.26
2016-09-01T00:38:22.584Z,18.2
2016-09-01T00:39:34.852Z,18.19
2016-09-01T00:40:47.138Z,18.23
2016-09-01T00:41:59.396Z,18.2
2016-09-01T00:43:11.671Z,18.16
2016-09-01T00:44:23.239Z,18.24
2016-09-01T00:45:34.115Z,18.2
2016-09-01T00:46:45.681Z,18.31
2016-09-01T00:47:57.923Z,18.24
2016-09-01T00:49:08.082Z,18.2
2016-09-01T00:50:19.648Z,18.21
2016-09-01T00:51:31.223Z,18.2
2016-09-01T00:52:42.081Z,18.14
2016-09-01T00:53:54.333Z,18.13
2016-09-01T00:55:05.886Z,18.17
2016-09-01T00:56:18.155Z,18.16
2016-09-01T00:57:30.434Z,18.11
2016-09-01T00:58:42.688Z,18.11
2016-09-01T00:59:54.956Z,18.03
2016-09-01T01:01:07.230Z,18.08
2016-09-01T01:02:18.085Z,18.08
2016-09-01T01:03:29.635Z,18.05
2016-09-01T01:04:41.193Z,18.1
2016-09-01T01:05:53.455Z,18.11
2016-09-01T01:07:05.702Z,18.05
2016-09-01T01:08:16.549Z,18.06
2016-09-01T01:09:28.105Z,18.03
2016-09-01T01:10:39.663Z,18.06
2016-09-01T01:11:51.919Z,18.02
2016-09-01T01:13:03.482Z,17.99
2016-09-01T01:14:15.057Z,17.88
2016-09-01T01:15:26.610Z,17.81
2016-09-01T01:16:36.752Z,17.88
2016-09-01T01:17:47.597Z,17.81
2016-09-01T01:18:59.134Z,17.77
2016-09-01T01:20:11.410Z,17.79
2016-09-01T01:21:23.667Z,17.77
2016-09-01T01:22:35.228Z,17.79
2016-09-01T01:23:47.517Z,17.76
2016-09-01T01:24:59.777Z,17.74
2016-09-01T01:26:11.330Z,17.79
2016-09-01T01:27:22.182Z,17.76
2016-09-01T01:28:33.728Z,17.79
2016-09-01T01:29:46.017Z,17.69
2016-09-01T01:30:58.265Z,17.74
2016-09-01T01:32:10.528Z,17.74
2016-09-01T01:33:22.091Z,17.69
2016-09-01T01:34:34.343Z,17.65
2016-09-01T01:35:44.493Z,17.66
2016-09-01T01:36:56.756Z,17.62
2016-09-01T01:38:09.039Z,17.62
2016-09-01T01:39:20.597Z,17.58
2016-09-01T01:40:31.450Z,17.55
2016-09-01T01:41:42.319Z,17.55
2016-09-01T01:42:53.175Z,17.5
2016-09-01T01:44:04.732Z,17.49
2016-09-01T01:45:16.997Z,17.52
2016-09-01T01:46:28.587Z,17.55
2016-09-01T01:47:39.443Z,17.52
2016-09-01T01:48:50.293Z,17.55
2016-09-01T01:50:01.841Z,17.62
2016-09-01T01:51:13.406Z,17.6
2016-09-01T01:52:23.584Z,17.63
2016-09-01T01:53:35.159Z,17.66
2016-09-01T01:54:46.720Z,17.65
2016-09-01T01:55:58.973Z,17.63
2016-09-01T01:57:11.230Z,17.63
2016-09-01T01:58:23.509Z,17.62
2016-09-01T01:59:35.769Z,17.6
2016-09-01T02:00:46.640Z,17.63
2016-09-01T02:01:58.917Z,17.62
2016-09-01T02:03:11.175Z,17.6
2016-09-01T02:04:22.745Z,17.58
2016-09-01T02:05:33.607Z,17.58
2016-09-01T02:06:46.094Z,17.62
2016-09-01T02:07:58.367Z,17.5
2016-09-01T02:09:10.628Z,17.62
2016-09-01T02:10:22.895Z,17.52
2016-09-01T02:11:34.566Z,17.55
2016-09-01T02:12:46.121Z,17.54
2016-09-01T02:13:57.679Z,17.62
2016-09-01T02:15:09.261Z,17.52
2016-09-01T02:16:21.373Z,17.55
2016-09-01T02:17:33.625Z,17.54
2016-09-01T02:18:45.872Z,17.57
2016-09-01T02:19:58.122Z,17.47
2016-09-01T02:21:08.289Z,17.55
2016-09-01T02:22:19.858Z,17.5
2016-09-01T02:23:31.418Z,17.49
2016-09-01T02:24:41.564Z,17.62
2016-09-01T02:25:53.829Z,17.52
2016-09-01T02:27:06.095Z,17.43
2016-09-01T02:28:18.359Z,17.5
2016-09-01T02:29:29.928Z,17.42
2016-09-01T02:30:42.205Z,17.45
2016-09-01T02:31:53.068Z,17.45
2016-09-01T02:33:04.622Z,17.43
2016-09-01T02:34:16.880Z,17.4
2016-09-01T02:35:28.432Z,17.4
2016-09-01T02:36:40.678Z,17.42
2016-09-01T02:37:52.241Z,17.39
2016-09-01T02:39:04.513Z,17.38
2016-09-01T02:40:16.146Z,17.35
2016-09-01T02:41:27.729Z,17.31
2016-09-01T02:42:38.582Z,17.31
2016-09-01T02:43:49.440Z,17.31
2016-09-01T02:44:59.601Z,17.31
2016-09-01T02:46:11.308Z,17.36
2016-09-01T02:47:23.569Z,17.32
2016-09-01T02:48:34.422Z,17.32
2016-09-01T02:49:45.977Z,17.3
2016-09-01T02:50:57.525Z,17.39
2016-09-01T02:52:09.076Z,17.28
2016-09-01T02:53:21.334Z,17.21
2016-09-01T02:54:33.604Z,17.24
2016-09-01T02:55:45.872Z,17.28
2016-09-01T02:56:56.774Z,17.24
2016-09-01T02:58:09.035Z,17.21
2016-09-01T02:59:20.601Z,17.28
2016-09-01T03:00:32.858Z,17.18
2016-09-01T03:32:30.482Z,13.99
2016-09-01T03:33:42.732Z,13.91
2016-09-01T03:34:53.575Z,13.97
2016-09-01T03:36:05.818Z,13.84
2016-09-01T03:37:18.069Z,13.94
2016-09-01T03:38:29.609Z,14.08
2016-09-01T03:39:41.156Z,14.21
2016-09-01T03:40:53.423Z,14.27
2016-09-01T03:42:05.673Z,14.42
2016-09-01T03:43:15.817Z,14.63
2016-09-01T03:44:28.075Z,14.63
2016-09-01T03:45:40.332Z,14.77
2016-09-01T03:46:52.589Z,15.04
2016-09-01T03:48:04.838Z,15.13
2016-09-01T03:49:15.700Z,15.16
2016-09-01T03:50:27.969Z,15.34
2016-09-01T03:51:40.254Z,15.51
2016-09-01T03:52:52.526Z,15.55
2016-09-01T03:54:04.787Z,15.65
2016-09-01T03:55:17.047Z,15.83
2016-09-01T03:56:29.308Z,15.89
2016-09-01T03:57:40.846Z,15.98
2016-09-01T03:58:53.095Z,16.06
2016-09-01T04:00:02.545Z,16.1
2016-09-01T04:01:14.112Z,16.17
2016-09-01T04:02:26.372Z,16.3
2016-09-01T04:03:37.943Z,16.34
2016-09-01T04:04:50.194Z,16.42
2016-09-01T04:06:02.452Z,16.4
2016-09-01T04:07:13.994Z,16.44
2016-09-01T04:08:26.254Z,16.57
2016-09-01T04:09:38.514Z,16.58
2016-09-01T04:10:50.059Z,16.63
2016-09-01T04:12:02.315Z,16.62
2016-09-01T04:13:13.872Z,16.73
2016-09-01T04:14:26.132Z,16.7
2016-09-01T04:15:37.689Z,16.7
2016-09-01T04:16:49.257Z,16.72
2016-09-01T04:18:01.512Z,16.85
2016-09-01T04:19:13.784Z,16.81
2016-09-01T04:20:24.643Z,16.88
2016-09-01T04:21:36.897Z,16.9
2016-09-01T04:22:49.156Z,17.02
2016-09-01T04:24:00.702Z,16.97
2016-09-01T04:25:11.564Z,17.12
2016-09-01T04:26:23.116Z,17.06
2016-09-01T04:27:34.678Z,17.05
2016-09-01T04:28:46.246Z,17.05
2016-09-01T04:29:57.792Z,17.09
2016-09-01T04:31:10.051Z,17.43
2016-09-01T04:32:22.317Z,17.5
2016-09-01T04:33:33.882Z,17.84
2016-09-01T04:34:45.438Z,18.19
2016-09-01T04:35:57.003Z,18.42
2016-09-01T04:37:09.271Z,18.66
2016-09-01T04:38:20.827Z,18.89
2016-09-01T04:39:33.095Z,18.94
2016-09-01T04:40:45.376Z,19.13
2016-09-01T04:41:56.234Z,19.38
2016-09-01T04:43:08.511Z,19.56
2016-09-01T04:44:20.776Z,19.83
2016-09-01T04:45:33.034Z,20.07
2016-09-01T04:46:45.295Z,20.19
2016-09-01T04:47:57.553Z,20.38
2016-09-01T04:49:09.817Z,20.46
2016-09-01T04:50:22.119Z,20.66
2016-09-01T04:51:33.669Z,20.76
2016-09-01T04:52:45.228Z,20.9
2016-09-01T04:53:56.076Z,21.12
2016-09-01T04:55:07.747Z,21.27
2016-09-01T04:56:20.023Z,21.4
2016-09-01T04:57:32.282Z,21.56
2016-09-01T04:58:43.129Z,21.55
2016-09-01T04:59:54.706Z,21.61
2016-09-01T05:01:06.992Z,21.8
2016-09-01T05:02:19.258Z,21.93
2016-09-01T05:03:30.809Z,22.05
2016-09-01T05:04:42.372Z,22.12
2016-09-01T05:05:54.629Z,22.24
2016-09-01T05:07:06.925Z,22.36
2016-09-01T05:08:19.182Z,22.42
2016-09-01T05:09:31.454Z,22.51
2016-09-01T05:10:43.720Z,22.49
2016-09-01T05:11:55.989Z,22.69
2016-09-01T05:13:07.563Z,22.78
2016-09-01T05:14:19.840Z,23
2016-09-01T05:15:31.386Z,23.09
2016-09-01T05:16:42.239Z,23.25
2016-09-01T05:17:54.498Z,23.45
2016-09-01T05:19:06.772Z,23.67
2016-09-01T05:20:18.352Z,23.84
2016-09-01T05:21:30.618Z,23.9
2016-09-01T05:22:41.457Z,24.03
2016-09-01T05:23:50.906Z,23.85
2016-09-01T05:25:03.176Z,23.4
2016-09-01T05:26:15.440Z,22.92
2016-09-01T05:27:27.706Z,22.82
2016-09-01T05:28:39.252Z,22.66
2016-09-01T05:29:50.109Z,22.54
2016-09-01T05:31:01.775Z,22.38
2016-09-01T05:32:14.022Z,22.31
2016-09-01T05:33:25.604Z,22.24
2016-09-01T05:34:36.462Z,22.45
2016-09-01T05:35:48.743Z,22.91
2016-09-01T05:36:59.600Z,23.21
2016-09-01T05:38:09.766Z,23.53
2016-09-01T05:39:21.336Z,23.53
2016-09-01T05:40:33.601Z,23.24
2016-09-01T05:41:45.157Z,22.91
2016-09-01T05:42:56.021Z,22.66
2016-09-01T05:44:07.720Z,22.46
2016-09-01T05:45:21.386Z,22.44
2016-09-01T05:46:33.657Z,22.51
2016-09-01T05:47:45.915Z,22.78
2016-09-01T05:48:58.182Z,22.85
2016-09-01T05:50:09.745Z,22.75
2016-09-01T05:51:21.310Z,22.52
2016-09-01T05:52:32.878Z,22.49
2016-09-01T05:53:45.133Z,22.63
2016-09-01T05:54:57.401Z,22.82
2016-09-01T05:56:09.695Z,22.94
2016-09-01T05:57:21.263Z,22.89
2016-09-01T05:58:32.866Z,22.76
2016-09-01T05:59:43.740Z,22.59
2016-09-01T06:00:55.650Z,22.55
2016-09-01T06:02:07.232Z,22.55
2016-09-01T06:03:19.489Z,22.61
2016-09-01T06:04:30.378Z,22.67
2016-09-01T06:05:41.935Z,22.63
2016-09-01T06:06:53.494Z,22.46
2016-09-01T06:08:05.067Z,22.42
2016-09-01T06:09:15.244Z,22.31
2016-09-01T06:10:27.504Z,22.41
2016-09-01T06:11:39.065Z,22.42
2016-09-01T06:12:50.638Z,22.42
2016-09-01T06:14:01.633Z,22.42
2016-09-01T06:15:13.206Z,22.41
2016-09-01T06:16:25.168Z,22.3
2016-09-01T06:17:36.714Z,22.26
2016-09-01T06:18:48.280Z,22.29
2016-09-01T06:20:00.552Z,22.27
2016-09-01T06:21:11.055Z,22.26
2016-09-01T06:22:21.928Z,22.29
2016-09-01T06:23:33.508Z,22.29
2016-09-01T06:24:45.784Z,22.31
2016-09-01T06:25:57.352Z,22.34
2016-09-01T06:27:08.926Z,22.24
2016-09-01T06:28:20.518Z,22.3
2016-09-01T06:29:32.079Z,22.3
2016-09-01T06:30:44.358Z,22.26
2016-09-01T06:31:55.946Z,22.27
2016-09-01T06:33:06.811Z,22.24
2016-09-01T06:34:19.087Z,22.26
2016-09-01T06:35:30.647Z,22.31
2016-09-01T06:36:42.198Z,22.3
2016-09-01T06:37:53.058Z,22.36
2016-09-01T06:39:05.365Z,22.42
2016-09-01T06:40:16.274Z,22.42
2016-09-01T06:41:27.932Z,22.52
2016-09-01T06:42:39.613Z,22.52
2016-09-01T06:43:51.165Z,22.51
2016-09-01T06:45:01.346Z,22.59
2016-09-01T06:46:14.237Z,22.59
2016-09-01T06:47:25.113Z,22.69
2016-09-01T06:48:37.375Z,22.69
2016-09-01T06:49:48.240Z,22.71
2016-09-01T06:50:59.822Z,22.75
2016-09-01T06:52:11.398Z,22.88
2016-09-01T06:53:22.247Z,22.89
2016-09-01T06:54:33.894Z,22.91
2016-09-01T06:55:46.167Z,22.89
2016-09-01T06:56:57.732Z,22.96
2016-09-01T06:58:07.900Z,23.1
2016-09-01T06:59:18.814Z,23.06
2016-09-01T07:00:30.364Z,23.21
2016-09-01T07:01:41.925Z,23.22
2016-09-01T07:02:54.185Z,23.26
2016-09-01T07:04:05.759Z,23.38
2016-09-01T07:05:18.022Z,23.38
2016-09-01T07:06:30.268Z,23.4
2016-09-01T07:07:41.814Z,23.45
2016-09-01T07:08:52.686Z,23.45
2016-09-01T07:10:04.288Z,23.44
2016-09-01T07:11:15.168Z,23.57
2016-09-01T07:12:26.740Z,23.55
2016-09-01T07:13:38.322Z,23.59
2016-09-01T07:14:49.874Z,23.71
2016-09-01T07:16:00.740Z,23.62
2016-09-01T07:17:11.607Z,23.66
2016-09-01T07:18:22.469Z,23.75
2016-09-01T07:19:33.353Z,23.75
2016-09-01T07:20:43.506Z,23.72
2016-09-01T07:21:54.385Z,23.75
2016-09-01T07:23:07.097Z,23.82
2016-09-01T07:24:17.954Z,23.84
2016-09-01T07:25:30.239Z,23.82
2016-09-01T07:26:41.821Z,23.92
2016-09-01T07:27:53.390Z,24.04
2016-09-01T07:29:05.715Z,24.11
2016-09-01T07:30:18.051Z,24.03
2016-09-01T07:31:27.532Z,24.11
2016-09-01T07:32:39.195Z,24.18
2016-09-01T07:33:49.356Z,24.19
2016-09-01T07:35:00.241Z,24.19
2016-09-01T07:36:12.066Z,24.24
2016-09-01T07:37:22.918Z,24.3
2016-09-01T07:38:34.503Z,24.32
2016-09-01T07:39:45.381Z,24.39
2016-09-01T07:40:56.941Z,24.46
2016-09-01T07:42:07.808Z,24.44
2016-09-01T07:43:19.389Z,24.56
2016-09-01T07:44:31.653Z,24.56
2016-09-01T07:45:43.224Z,24.67
2016-09-01T07:46:54.786Z,24.64
2016-09-01T07:48:07.063Z,24.7
2016-09-01T07:49:18.624Z,24.71
2016-09-01T07:50:30.882Z,24.82
2016-09-01T07:51:41.764Z,24.78
2016-09-01T07:52:54.041Z,24.75
2016-09-01T07:54:06.342Z,24.87
2016-09-01T07:55:18.690Z,24.9
2016-09-01T07:56:30.260Z,24.97
2016-09-01T07:57:41.124Z,24.92
2016-09-01T07:58:53.392Z,25
2016-09-01T08:00:05.737Z,25.05
2016-09-01T08:01:17.303Z,25.09
2016-09-01T08:02:28.184Z,25.19
2016-09-01T08:03:39.750Z,25.12
2016-09-01T08:04:51.317Z,25.24
2016-09-01T08:06:03.583Z,25.33
2016-09-01T08:07:15.852Z,25.39
2016-09-01T08:08:27.404Z,25.38
2016-09-01T08:09:38.969Z,25.41
2016-09-01T08:10:51.225Z,25.54
2016-09-01T08:12:03.498Z,25.52
2016-09-01T08:13:15.061Z,25.74
2016-09-01T08:14:27.327Z,25.7
2016-09-01T08:15:38.888Z,25.84
2016-09-01T08:16:50.456Z,25.96
2016-09-01T08:18:01.301Z,25.91
2016-09-01T08:19:12.156Z,25.93
2016-09-01T08:20:23.027Z,26
2016-09-01T08:21:34.198Z,26.04
2016-09-01T08:22:46.465Z,26.06
2016-09-01T08:23:57.346Z,26.12
2016-09-01T08:25:06.844Z,26.16
2016-09-01T08:26:18.280Z,26.15
2016-09-01T08:27:30.552Z,26.15
2016-09-01T08:28:41.427Z,26.19
2016-09-01T08:29:52.304Z,26.3
2016-09-01T08:31:02.482Z,26.26
2016-09-01T08:32:14.036Z,26.27
2016-09-01T08:33:25.610Z,26.38
2016-09-01T08:34:37.172Z,26.42
2016-09-01T08:35:48.044Z,26.44
2016-09-01T08:36:58.911Z,26.54
2016-09-01T08:38:10.493Z,26.68
2016-09-01T08:39:21.364Z,26.74
2016-09-01T08:40:32.920Z,26.75
2016-09-01T08:41:45.188Z,26.93
2016-09-01T08:42:57.453Z,26.93
2016-09-01T08:44:09.012Z,26.94
2016-09-01T08:45:20.594Z,26.93
2016-09-01T08:46:32.155Z,26.94
2016-09-01T08:47:44.441Z,26.93
2016-09-01T08:48:56.699Z,26.96
2016-09-01T08:50:07.570Z,26.91
2016-09-01T08:51:19.144Z,27
2016-09-01T08:52:30.729Z,27.06
2016-09-01T08:53:42.277Z,27.13
2016-09-01T08:54:53.149Z,27.11
2016-09-01T08:56:04.005Z,27.19
2016-09-01T08:57:14.884Z,27.3
2016-09-01T08:58:26.454Z,27.27
2016-09-01T08:59:36.639Z,27.3
2016-09-01T09:00:48.205Z,27.27
2016-09-01T09:01:59.078Z,27.33
2016-09-01T09:03:09.941Z,27.34
2016-09-01T09:04:21.521Z,27.34
2016-09-01T09:05:33.103Z,27.45
2016-09-01T09:06:44.742Z,27.42
2016-09-01T09:07:56.318Z,27.61
2016-09-01T09:09:08.592Z,27.59
2016-09-01T09:10:19.532Z,27.68
2016-09-01T09:11:30.416Z,27.83
2016-09-01T09:12:42.692Z,27.87
2016-09-01T09:13:54.956Z,27.9
2016-09-01T09:15:07.236Z,27.99
2016-09-01T09:16:18.125Z,28.03
2016-09-01T09:17:28.287Z,28.08
2016-09-01T09:18:39.866Z,27.96
2016-09-01T09:19:51.433Z,27.99
2016-09-01T09:21:03.725Z,28.03
2016-09-01T09:22:16.010Z,28.09
2016-09-01T09:23:28.295Z,28.14
2016-09-01T09:24:40.561Z,28.14
2016-09-01T09:25:51.419Z,28.2
2016-09-01T09:27:03.038Z,28.18
2016-09-01T09:28:13.905Z,28.31
2016-09-01T09:29:24.789Z,28.35
2016-09-01T09:30:37.070Z,28.36
2016-09-01T09:31:47.924Z,28.33
2016-09-01T09:32:59.494Z,28.31
2016-09-01T09:34:10.357Z,28.28
2016-09-01T09:35:22.637Z,28.3
2016-09-01T09:36:33.497Z,28.31
2016-09-01T09:37:45.760Z,28.35
2016-09-01T09:38:57.333Z,28.42
2016-09-01T09:40:07.490Z,28.45
2016-09-01T09:41:19.070Z,28.51
2016-09-01T09:42:30.627Z,28.55
2016-09-01T09:43:41.481Z,28.64
2016-09-01T09:44:53.047Z,28.65
2016-09-01T09:46:04.618Z,28.68
2016-09-01T09:47:16.891Z,28.7
2016-09-01T09:48:28.458Z,28.75
2016-09-01T09:49:38.617Z,28.82
2016-09-01T09:50:50.200Z,28.82
2016-09-01T09:52:02.477Z,28.86
2016-09-01T09:53:12.634Z,28.9
2016-09-01T09:54:24.220Z,28.88
2016-09-01T09:55:35.100Z,29.02
2016-09-01T09:56:46.683Z,29.08
2016-09-01T09:57:58.950Z,29.18
2016-09-01T09:59:09.843Z,29.23
2016-09-01T10:00:22.121Z,29.36
2016-09-01T10:01:33.707Z,29.38
2016-09-01T10:02:43.883Z,29.39
2016-09-01T10:03:55.448Z,29.45
2016-09-01T10:05:07.488Z,29.48
2016-09-01T10:06:19.058Z,29.4
2016-09-01T10:07:31.326Z,29.42
2016-09-01T10:08:43.596Z,29.43
2016-09-01T10:09:55.883Z,29.43
2016-09-01T10:11:07.444Z,29.51
2016-09-01T10:12:19.022Z,29.52
2016-09-01T10:13:31.284Z,29.65
2016-09-01T10:14:42.158Z,29.61
2016-09-01T10:15:53.732Z,29.7
2016-09-01T10:17:06.028Z,29.75
2016-09-01T10:18:18.319Z,29.72
2016-09-01T10:19:29.893Z,29.76
2016-09-01T10:20:40.774Z,29.77
2016-09-01T10:21:52.332Z,29.81
2016-09-01T10:23:04.864Z,29.85
2016-09-01T10:24:16.495Z,29.92
2016-09-01T10:25:28.760Z,29.94
2016-09-01T10:26:39.650Z,29.92
2016-09-01T10:27:49.816Z,29.92
2016-09-01T10:29:01.416Z,30
2016-09-01T10:30:12.288Z,30.06
2016-09-01T10:31:23.144Z,30.1
2016-09-01T10:32:34.723Z,30.07
2016-09-01T10:33:46.284Z,30.09
2016-09-01T10:34:57.947Z,30.16
2016-09-01T10:36:10.218Z,30.14
2016-09-01T10:37:21.789Z,30.25
2016-09-01T10:38:32.663Z,30.29
2016-09-01T10:39:44.238Z,30.29
2016-09-01T10:40:56.505Z,30.35
2016-09-01T10:42:08.076Z,30.32
2016-09-01T10:43:19.645Z,30.47
2016-09-01T10:44:31.205Z,30.47
2016-09-01T10:45:41.398Z,30.51
2016-09-01T10:46:52.984Z,30.47
2016-09-01T10:48:04.697Z,30.51
2016-09-01T10:49:16.272Z,30.64
2016-09-01T10:50:28.918Z,30.66
2016-09-01T10:51:41.136Z,30.7
2016-09-01T10:52:51.997Z,30.75
2016-09-01T10:54:03.590Z,30.78
2016-09-01T10:55:15.178Z,30.94
2016-09-01T10:56:27.554Z,31.06
2016-09-01T10:57:39.134Z,31.15
2016-09-01T10:58:50.725Z,31.21
2016-09-01T11:00:01.597Z,31.25
2016-09-01T11:01:12.480Z,31.21
2016-09-01T11:02:24.852Z,31.18
2016-09-01T11:03:35.732Z,31.28
2016-09-01T11:04:48.009Z,31.33
2016-09-01T11:06:00.274Z,31.45
2016-09-01T11:07:10.434Z,31.41
2016-09-01T11:08:21.995Z,31.37
2016-09-01T11:09:33.554Z,31.26
2016-09-01T11:10:45.839Z,31.37
2016-09-01T11:11:57.441Z,31.41
2016-09-01T11:13:08.992Z,31.49
2016-09-01T11:14:19.863Z,31.44
2016-09-01T11:15:31.438Z,31.4
2016-09-01T11:16:43.003Z,31.55
2016-09-01T11:17:54.585Z,31.68
2016-09-01T11:19:06.146Z,31.63
2016-09-01T11:20:17.030Z,31.68
2016-09-01T11:21:27.890Z,31.77
2016-09-01T11:22:39.498Z,31.71
2016-09-01T11:23:50.419Z,31.74
2016-09-01T11:25:01.587Z,31.88
2016-09-01T11:26:12.467Z,31.82
2016-09-01T11:27:24.748Z,31.88
2016-09-01T11:28:36.315Z,31.88
2016-09-01T11:29:47.906Z,31.93
2016-09-01T11:30:58.769Z,31.82
2016-09-01T11:32:08.921Z,31.9
2016-09-01T11:33:19.088Z,32
2016-09-01T11:34:30.659Z,31.97
2016-09-01T11:35:42.222Z,32.03
2016-09-01T11:36:53.090Z,32
2016-09-01T11:38:05.355Z,32.01
2016-09-01T11:39:16.930Z,32.09
2016-09-01T11:40:27.825Z,32.16
2016-09-01T11:41:39.397Z,32.13
2016-09-01T11:42:51.667Z,32.2
2016-09-01T11:44:03.940Z,32.28
2016-09-01T11:45:16.224Z,32.3
2016-09-01T11:46:28.537Z,32.32
2016-09-01T11:47:40.123Z,32.38
2016-09-01T11:48:50.300Z,32.38
2016-09-01T11:50:01.899Z,32.37
2016-09-01T11:51:12.142Z,32.37
2016-09-01T11:52:23.722Z,32.42
2016-09-01T11:53:34.601Z,32.46
2016-09-01T11:54:46.185Z,32.47
2016-09-01T11:55:57.748Z,32.5
2016-09-01T11:57:08.640Z,32.52
2016-09-01T11:58:20.228Z,32.47
2016-09-01T11:59:31.803Z,32.47
2016-09-01T12:00:42.665Z,32.49
2016-09-01T12:01:54.247Z,32.56
2016-09-01T12:03:05.148Z,32.52
2016-09-01T12:04:17.439Z,32.62
2016-09-01T12:05:29.726Z,32.71
2016-09-01T12:06:41.323Z,32.62
2016-09-01T12:07:53.599Z,32.71
2016-09-01T12:09:05.641Z,32.67
2016-09-01T12:10:17.913Z,32.69
2016-09-01T12:11:28.794Z,32.87
2016-09-01T12:12:39.660Z,32.91
2016-09-01T12:13:51.226Z,32.89
2016-09-01T12:15:02.810Z,32.84
2016-09-01T12:16:12.988Z,32.86
2016-09-01T12:17:24.547Z,32.76
2016-09-01T12:18:36.124Z,32.75
2016-09-01T12:19:48.393Z,32.81
2016-09-01T12:20:59.973Z,32.83
2016-09-01T12:22:11.570Z,32.83
2016-09-01T12:23:23.183Z,32.94
2016-09-01T12:24:35.522Z,32.86
2016-09-01T12:25:47.790Z,32.86
2016-09-01T12:26:57.948Z,32.89
2016-09-01T12:28:09.530Z,32.83
2016-09-01T12:29:21.798Z,32.89
2016-09-01T12:30:33.373Z,32.93
2016-09-01T12:31:45.650Z,32.99
2016-09-01T12:32:56.529Z,33.02
2016-09-01T12:34:08.803Z,33.02
2016-09-01T12:35:21.086Z,33.06
2016-09-01T12:36:33.418Z,33.03
2016-09-01T12:37:44.982Z,33.02
2016-09-01T12:38:56.546Z,33.03
2016-09-01T12:40:08.858Z,33.12
2016-09-01T12:41:20.450Z,33.05
2016-09-01T12:42:32.005Z,33.09
2016-09-01T12:43:43.811Z,33.08
2016-09-01T12:44:56.095Z,33.01
2016-09-01T12:46:07.998Z,33.06
2016-09-01T12:47:20.263Z,33.05
2016-09-01T12:48:31.284Z,33.13
2016-09-01T12:49:42.170Z,33.08
2016-09-01T12:50:54.468Z,33.05
2016-09-01T12:52:06.049Z,33.02
2016-09-01T12:53:18.066Z,33.03
2016-09-01T12:54:29.643Z,33.02
2016-09-01T12:55:41.224Z,33.09
2016-09-01T12:56:53.526Z,33.02
2016-09-01T12:58:05.793Z,33.01
2016-09-01T12:59:17.352Z,33.09
2016-09-01T13:00:28.918Z,33.12
2016-09-01T13:01:40.498Z,33.09
2016-09-01T13:02:50.657Z,33.05
2016-09-01T13:04:02.934Z,33.02
2016-09-01T13:05:14.535Z,33.05
2016-09-01T13:06:26.863Z,33.01
2016-09-01T13:07:38.453Z,32.99
2016-09-01T13:08:50.037Z,32.93
2016-09-01T13:10:00.892Z,32.96
2016-09-01T13:11:11.040Z,32.96
2016-09-01T13:12:21.209Z,32.98
2016-09-01T13:13:32.833Z,32.93
2016-09-01T13:14:43.700Z,33.02
2016-09-01T13:15:55.268Z,33.01
2016-09-01T13:17:07.539Z,32.99
2016-09-01T13:18:19.124Z,33.05
2016-09-01T13:19:30.001Z,32.98
2016-09-01T13:20:42.278Z,32.99
2016-09-01T13:21:52.453Z,32.99
2016-09-01T13:23:02.640Z,33.06
2016-09-01T13:24:13.507Z,33.02
2016-09-01T13:25:25.075Z,32.96
2016-09-01T13:26:35.944Z,32.83
2016-09-01T13:27:48.304Z,32.89
2016-09-01T13:28:59.169Z,32.9
2016-09-01T13:30:09.717Z,32.94
2016-09-01T13:31:21.120Z,32.99
2016-09-01T13:32:31.285Z,33.06
2016-09-01T13:33:42.157Z,33.06
2016-09-01T13:34:54.424Z,33.03
2016-09-01T13:36:05.325Z,33.09
2016-09-01T13:37:16.227Z,33.06
2016-09-01T13:38:26.402Z,33.11
2016-09-01T13:39:38.682Z,33.12
2016-09-01T13:40:50.254Z,33.11
2016-09-01T13:42:01.847Z,33.12
2016-09-01T13:43:14.132Z,33.08
2016-09-01T13:44:24.993Z,33.13
2016-09-01T13:45:36.550Z,33.21
2016-09-01T13:46:47.410Z,33.17
2016-09-01T13:47:59.713Z,33.17
2016-09-01T13:49:09.864Z,33.11
2016-09-01T13:50:22.131Z,32.98
2016-09-01T13:51:32.299Z,32.84
2016-09-01T13:52:43.870Z,32.86
2016-09-01T13:53:54.759Z,32.83
2016-09-01T13:55:07.039Z,32.83
2016-09-01T13:56:18.605Z,32.83
2016-09-01T13:57:30.188Z,32.83
2016-09-01T13:58:42.458Z,32.79
2016-09-01T13:59:54.727Z,32.75
2016-09-01T14:01:06.299Z,32.67
2016-09-01T14:02:17.850Z,32.61
2016-09-01T14:03:29.421Z,32.72
2016-09-01T14:04:40.295Z,32.69
2016-09-01T14:05:51.997Z,32.69
2016-09-01T14:07:02.170Z,32.71
2016-09-01T14:08:13.733Z,32.67
2016-09-01T14:09:24.605Z,32.59
2016-09-01T14:10:36.175Z,32.57
2016-09-01T14:11:47.740Z,32.59
2016-09-01T14:12:59.317Z,32.62
2016-09-01T14:14:11.612Z,32.61
2016-09-01T14:15:21.075Z,32.68
2016-09-01T14:16:32.696Z,32.64
2016-09-01T14:17:43.583Z,32.68
2016-09-01T14:18:54.451Z,32.71
2016-09-01T14:20:06.730Z,32.71
2016-09-01T14:21:17.480Z,32.76
2016-09-01T14:22:29.782Z,32.67
2016-09-01T14:23:41.388Z,32.68
2016-09-01T14:24:52.959Z,32.69
2016-09-01T14:26:05.229Z,32.65
2016-09-01T14:27:16.101Z,32.62
2016-09-01T14:28:27.673Z,32.69
2016-09-01T14:29:39.257Z,32.71
2016-09-01T14:30:50.866Z,32.67
2016-09-01T14:32:02.463Z,32.57
2016-09-01T14:33:13.335Z,32.56
2016-09-01T14:34:24.894Z,32.47
2016-09-01T14:35:34.351Z,32.47
2016-09-01T14:36:47.526Z,32.54
2016-09-01T14:37:59.122Z,32.61
2016-09-01T14:39:11.419Z,32.5
2016-09-01T14:40:22.988Z,32.54
2016-09-01T14:41:35.638Z,32.53
2016-09-01T14:42:47.918Z,32.54
2016-09-01T14:43:58.456Z,32.57
2016-09-01T14:45:10.746Z,32.5
2016-09-01T14:46:22.331Z,32.61
2016-09-01T14:47:33.928Z,32.62
2016-09-01T14:48:46.202Z,32.69
2016-09-01T14:49:57.078Z,32.72
2016-09-01T14:51:09.369Z,32.68
2016-09-01T14:52:21.005Z,32.56
2016-09-01T14:53:33.065Z,32.61
2016-09-01T14:54:45.339Z,32.64
2016-09-01T14:55:56.205Z,32.62
2016-09-01T14:57:07.819Z,32.5
2016-09-01T14:58:18.792Z,32.5
2016-09-01T14:59:30.379Z,32.46
2016-09-01T15:00:41.952Z,32.46
2016-09-01T15:01:53.762Z,32.39
2016-09-01T15:03:05.351Z,32.45
2016-09-01T15:04:17.631Z,32.39
2016-09-01T15:05:29.188Z,32.25
2016-09-01T15:06:40.763Z,32.23
2016-09-01T15:07:51.656Z,32.28
2016-09-01T15:09:03.242Z,32.16
2016-09-01T15:10:15.581Z,32.25
2016-09-01T15:11:26.468Z,32.27
2016-09-01T15:12:38.046Z,32.3
2016-09-01T15:13:50.329Z,32.24
2016-09-01T15:15:01.207Z,32.3
2016-09-01T15:16:12.065Z,32.24
2016-09-01T15:17:24.350Z,32.15
2016-09-01T15:18:36.623Z,32.2
2016-09-01T15:19:48.215Z,32.23
2016-09-01T15:21:00.501Z,32.15
2016-09-01T15:22:12.078Z,32.19
2016-09-01T15:23:23.680Z,32.17
2016-09-01T15:24:34.578Z,32.16
2016-09-01T15:25:46.153Z,32.1
2016-09-01T15:26:57.725Z,32.08
2016-09-01T15:28:08.594Z,32.13
2016-09-01T15:29:20.183Z,32.1
2016-09-01T15:30:31.758Z,32
2016-09-01T15:31:44.046Z,31.95
2016-09-01T15:32:56.324Z,31.91
2016-09-01T15:34:07.888Z,31.78
2016-09-01T15:35:19.452Z,31.88
2016-09-01T15:36:31.025Z,31.82
2016-09-01T15:37:42.590Z,31.95
2016-09-01T15:38:53.458Z,31.86
2016-09-01T15:40:02.910Z,31.82
2016-09-01T15:41:15.187Z,31.8
2016-09-01T15:42:25.368Z,31.72
2016-09-01T15:43:36.931Z,31.71
2016-09-01T15:44:47.107Z,31.75
2016-09-01T15:45:58.668Z,31.68
2016-09-01T15:47:09.551Z,31.59
2016-09-01T15:48:21.127Z,31.47
2016-09-01T15:49:32.703Z,31.49
2016-09-01T15:50:44.308Z,31.52
2016-09-01T15:51:56.593Z,31.49
2016-09-01T15:53:08.176Z,31.47
2016-09-01T15:54:19.046Z,31.55
2016-09-01T15:55:30.786Z,31.47